Map

Track Data

SID SEASON NUMBER BASIN SUBBASIN NAME ISO_TIME NATURE LAT LON WMO_WIND WMO_PRES WMO_AGENCY TRACK_TYPE DIST2LAND LANDFALL IFLAG USA_AGENCY USA_ATCF_ID USA_LAT USA_LON USA_RECORD USA_STATUS USA_WIND USA_PRES USA_SSHS USA_R34_NE USA_R34_SE USA_R34_SW USA_R34_NW USA_R50_NE USA_R50_SE USA_R50_SW USA_R50_NW USA_R64_NE USA_R64_SE USA_R64_SW USA_R64_NW USA_POCI USA_ROCI USA_RMW USA_EYE TOKYO_LAT TOKYO_LON TOKYO_GRADE TOKYO_WIND TOKYO_PRES TOKYO_R50_DIR TOKYO_R50_LONG TOKYO_R50_SHORT TOKYO_R30_DIR TOKYO_R30_LONG TOKYO_R30_SHORT TOKYO_LAND CMA_LAT CMA_LON CMA_CAT CMA_WIND CMA_PRES HKO_LAT HKO_LON HKO_CAT HKO_WIND HKO_PRES NEWDELHI_LAT NEWDELHI_LON NEWDELHI_GRADE NEWDELHI_WIND NEWDELHI_PRES NEWDELHI_CI NEWDELHI_DP NEWDELHI_POCI REUNION_LAT REUNION_LON REUNION_TYPE REUNION_WIND REUNION_PRES REUNION_TNUM REUNION_CI REUNION_RMW REUNION_R34_NE REUNION_R34_SE REUNION_R34_SW REUNION_R34_NW REUNION_R50_NE REUNION_R50_SE REUNION_R50_SW REUNION_R50_NW REUNION_R64_NE REUNION_R64_SE REUNION_R64_SW REUNION_R64_NW BOM_LAT BOM_LON BOM_TYPE BOM_WIND BOM_PRES BOM_TNUM BOM_CI BOM_RMW BOM_R34_NE BOM_R34_SE BOM_R34_SW BOM_R34_NW BOM_R50_NE BOM_R50_SE BOM_R50_SW BOM_R50_NW BOM_R64_NE BOM_R64_SE BOM_R64_SW BOM_R64_NW BOM_ROCI BOM_POCI BOM_EYE BOM_POS_METHOD BOM_PRES_METHOD NADI_LAT NADI_LON NADI_CAT NADI_WIND NADI_PRES WELLINGTON_LAT WELLINGTON_LON WELLINGTON_WIND WELLINGTON_PRES DS824_LAT DS824_LON DS824_STAGE DS824_WIND DS824_PRES TD9636_LAT TD9636_LON TD9636_STAGE TD9636_WIND TD9636_PRES TD9635_LAT TD9635_LON TD9635_WIND TD9635_PRES TD9635_ROCI NEUMANN_LAT NEUMANN_LON NEUMANN_CLASS NEUMANN_WIND NEUMANN_PRES MLC_LAT MLC_LON MLC_CLASS MLC_WIND MLC_PRES USA_GUST BOM_GUST BOM_GUST_PER REUNION_GUST REUNION_GUST_PER USA_SEAHGT USA_SEARAD_NE USA_SEARAD_SE USA_SEARAD_SW USA_SEARAD_NW STORM_SPEED STORM_DIR
1982221N10250 1982 59 EP MM LANE 1982-08-08 18:00:00 TS 9.80000 -110.000 30 hurdat_epa main 1181 1181 O_________O___ hurdat_epa EP121982 9.80000 -110.000 TD 30 -1 9.80000 -110.000 1 30 16 278
1982221N10250 1982 59 EP MM LANE 1982-08-08 21:00:00 TS 9.91063 -110.827 main 1224 1224 P_________P___ EP121982 9.90301 -110.830 TD 30 -1 9.93349 -110.819 1 30 16 281
1982221N10250 1982 59 EP MM LANE 1982-08-09 00:00:00 TS 10.1000 -111.600 30 hurdat_epa main 1253 1253 O_________O___ hurdat_epa EP121982 10.1000 -111.600 TD 30 -1 10.1000 -111.600 1 30 15 289
1982221N10250 1982 59 EP MM LANE 1982-08-09 03:00:00 TS 10.4130 -112.283 main 1272 1270 P_________P___ EP121982 10.4422 -112.272 TD 30 -1 10.3254 -112.316 1 32 15 297
1982221N10250 1982 59 EP MM LANE 1982-08-09 06:00:00 TS 10.7495 -112.919 30 hurdat_epa main 1288 1287 O_________P___ hurdat_epa EP121982 10.8000 -112.900 TD 30 -1 10.5981 -112.975 1 35 14 294
1982221N10250 1982 59 EP MM LANE 1982-08-09 09:00:00 TS 10.9797 -113.568 main 1316 1316 P_________P___ EP121982 11.0074 -113.558 TD 35 0 10.8967 -113.597 1 37 13 290
1982221N10250 1982 59 EP MM LANE 1982-08-09 12:00:00 TS 11.2000 -114.200 40 hurdat_epa main 1346 1346 O_________O___ hurdat_epa EP121982 11.2000 -114.200 TS 40 0 11.2000 -114.200 2 40 13 292
1982221N10250 1982 59 EP MM LANE 1982-08-09 15:00:00 TS 11.4838 -114.811 main 1369 1364 P_________P___ EP121982 11.4923 -114.808 TS 45 0 11.4584 -114.823 2 42 13 296
1982221N10250 1982 59 EP MM LANE 1982-08-09 18:00:00 TS 11.7799 -115.408 50 hurdat_epa main 1367 1365 O_________P___ hurdat_epa EP121982 11.8000 -115.400 TS 50 0 11.7195 -115.431 2 45 13 295
1982221N10250 1982 59 EP MM LANE 1982-08-09 21:00:00 TS 12.0195 -116.012 main 1375 1370 P_________P___ EP121982 12.0274 -116.008 TS 50 0 11.9959 -116.023 2 47 13 294
1982221N10250 1982 59 EP MM LANE 1982-08-10 00:00:00 TS 12.3000 -116.600 50 hurdat_epa main 1376 1365 O_________O___ hurdat_epa EP121982 12.3000 -116.600 TS 50 0 12.3000 -116.600 2 50 13 302
1982221N10250 1982 59 EP MM LANE 1982-08-10 03:00:00 TS 12.7242 -117.156 main 1371 1352 P_________P___ EP121982 12.7423 -117.157 TS 52 0 12.6699 -117.152 2 51 14 309
1982221N10250 1982 59 EP MM LANE 1982-08-10 06:00:00 TS 13.1660 -117.698 55 hurdat_epa main 1355 1353 O_________P___ hurdat_epa EP121982 13.2000 -117.700 TS 55 0 13.0640 -117.692 2 52 13 307
1982221N10250 1982 59 EP MM LANE 1982-08-10 09:00:00 TS 13.5045 -118.236 main 1361 1359 P_________P___ EP121982 13.5223 -118.235 TS 55 0 13.4511 -118.237 2 53 12 301
1982221N10250 1982 59 EP MM LANE 1982-08-10 12:00:00 TS 13.8000 -118.800 55 hurdat_epa main 1377 1375 O_________O___ hurdat_epa EP121982 13.8000 -118.800 TS 55 0 13.8000 -118.800 2 55 13 298
1982221N10250 1982 59 EP MM LANE 1982-08-10 15:00:00 TS 14.1119 -119.435 main 1396 1395 P_________P___ EP121982 14.1225 -119.442 TS 55 0 14.0802 -119.412 2 55 14 295
1982221N10250 1982 59 EP MM LANE 1982-08-10 18:00:00 TS 14.3793 -120.086 55 hurdat_epa main 1423 1423 O_________P___ hurdat_epa EP121982 14.4000 -120.100 TS 55 0 14.3174 -120.043 2 55 13 290
1982221N10250 1982 59 EP MM LANE 1982-08-10 21:00:00 TS 14.5594 -120.700 main 1443 1443 P_________P___ EP121982 14.5723 -120.708 TS 55 0 14.5208 -120.678 2 55 12 285
1982221N10250 1982 59 EP MM LANE 1982-08-11 00:00:00 TS 14.7000 -121.300 55 hurdat_epa main 1474 1474 O_________O___ hurdat_epa EP121982 14.7000 -121.300 TS 55 0 14.7000 -121.300 2 55 12 284
1982221N10250 1982 59 EP MM LANE 1982-08-11 03:00:00 TS 14.8592 -121.902 main 1499 1499 P_________P___ EP121982 14.8499 -121.908 TS 50 0 14.8871 -121.886 2 52 12 285
1982221N10250 1982 59 EP MM LANE 1982-08-11 06:00:00 TS 15.0129 -122.489 45 hurdat_epa main 1534 1534 O_________P___ hurdat_epa EP121982 15.0000 -122.500 TS 45 0 15.0516 -122.458 2 50 11 286
1982221N10250 1982 59 EP MM LANE 1982-08-11 09:00:00 TS 15.1711 -123.044 main 1556 1556 P_________P___ EP121982 15.1648 -123.050 TS 45 0 15.1903 -123.026 2 47 11 285
1982221N10250 1982 59 EP MM LANE 1982-08-11 12:00:00 TS 15.3000 -123.600 45 hurdat_epa main 1594 1594 O_________O___ hurdat_epa EP121982 15.3000 -123.600 TS 45 0 15.3000 -123.600 2 45 11 280
1982221N10250 1982 59 EP MM LANE 1982-08-11 15:00:00 TS 15.3703 -124.194 main 1633 1633 P_________P___ EP121982 15.3649 -124.193 TS 42 0 15.3866 -124.197 2 42 12 275
1982221N10250 1982 59 EP MM LANE 1982-08-11 18:00:00 TS 15.4111 -124.800 40 hurdat_epa main 1682 1682 O_________P___ hurdat_epa EP121982 15.4000 -124.800 TS 40 0 15.4446 -124.800 2 40 12 275
1982221N10250 1982 59 EP MM LANE 1982-08-11 21:00:00 TS 15.4631 -125.401 main 1724 1724 P_________P___ EP121982 15.4573 -125.400 TS 37 0 15.4803 -125.403 2 37 12 274
1982221N10250 1982 59 EP MM LANE 1982-08-12 00:00:00 TS 15.5000 -126.000 35 hurdat_epa main 1773 1773 O_________O___ hurdat_epa EP121982 15.5000 -126.000 TS 35 0 15.5000 -126.000 2 35 12 272
1982221N10250 1982 59 EP MM LANE 1982-08-12 03:00:00 TS 15.5039 -126.601 main 1813 1813 P_________P___ EP121982 15.5074 -126.608 TS 32 -1 15.4935 -126.583 2 33 11 270
1982221N10250 1982 59 EP MM LANE 1982-08-12 06:00:00 TS 15.4942 -127.190 30 hurdat_epa main 1854 1854 O_________P___ hurdat_epa EP121982 15.5000 -127.200 TD 30 -1 15.4768 -127.158 2 32 11 269
1982221N10250 1982 59 EP MM LANE 1982-08-12 09:00:00 TS 15.4759 -127.745 main 1890 1890 P_________P___ EP121982 15.4773 -127.750 TD 30 -1 15.4717 -127.730 2 31 11 270
1982221N10250 1982 59 EP MM LANE 1982-08-12 12:00:00 TS 15.5000 -128.300 30 hurdat_epa main 1933 1933 O_________O___ hurdat_epa EP121982 15.5000 -128.300 TD 30 -1 15.5000 -128.300 1 30 11 278
1982221N10250 1982 59 EP MM LANE 1982-08-12 15:00:00 TS 15.6213 -128.891 main 1969 1969 P_________P___ EP121982 15.6350 -128.900 TD 30 -1 15.5803 -128.863 1 30 12 284
1982221N10250 1982 59 EP MM LANE 1982-08-12 18:00:00 TS 15.7741 -129.482 30 hurdat_epa main 1999 1999 O_________P___ hurdat_epa EP121982 15.8000 -129.500 TD 30 -1 15.6965 -129.428 1 30 11 284
1982221N10250 1982 59 EP MM LANE 1982-08-12 21:00:00 TS 15.8902 -130.027 main 2030 2030 P_________P___ EP121982 15.9071 -130.035 TD 30 -1 15.8396 -130.004 1 30 11 282
1982221N10250 1982 59 EP MM LANE 1982-08-13 00:00:00 TS 16.0000 -130.600 30 hurdat_epa main 2070 2070 O_________O___ hurdat_epa EP121982 16.0000 -130.600 TD 30 -1 16.0000 -130.600 1 30 12 280
1982221N10250 1982 59 EP MM LANE 1982-08-13 03:00:00 TS 16.0993 -131.276 main 2119 2119 P_________P___ EP121982 16.0776 -131.293 TD 30 -1 16.1643 -131.224 1 30 13 280
1982221N10250 1982 59 EP MM LANE 1982-08-13 06:00:00 TS 16.2355 -131.968 30 hurdat_epa main 2169 2162 O_________P___ hurdat_epa EP121982 16.2000 -132.000 TD 30 -1 16.3420 -131.870 1 30 13 286
1982221N10250 1982 59 EP MM LANE 1982-08-13 09:00:00 TS 16.4568 -132.577 main 2198 2198 P_________P___ EP121982 16.4345 -132.592 TD 30 -1 16.5236 -132.531 1 30 13 291
1982221N10250 1982 59 EP MM LANE 1982-08-13 12:00:00 TS 16.7000 -133.200 30 hurdat_epa main 2236 2225 O_________O___ hurdat_epa EP121982 16.7000 -133.200 TD 30 -1 16.7000 -133.200 1 30 14 289
1982221N10250 1982 59 EP MM LANE 1982-08-13 15:00:00 TS 16.9053 -133.939 main 2225 2148 P_________P___ EP121982 16.9227 -133.950 TD 30 -1 16.8533 -133.905 1 28 15 285
1982221N10250 1982 59 EP MM LANE 1982-08-13 18:00:00 TS 17.0751 -134.678 30 hurdat_epa main 2137 2073 O_________P___ hurdat_epa EP121982 17.1000 -134.700 TD 30 -1 17.0004 -134.610 1 27 14 282
1982221N10250 1982 59 EP MM LANE 1982-08-13 21:00:00 TS 17.1866 -135.330 main 2073 2008 P_________P___ EP121982 17.1998 -135.345 TD 27 -1 17.1472 -135.286 1 26 12 281
1982221N10250 1982 59 EP MM LANE 1982-08-14 00:00:00 TS 17.3000 -135.900 25 hurdat_epa main 2008 1952 O_________O___ hurdat_epa EP121982 17.3000 -135.900 TD 25 -1 17.3000 -135.900 1 25 10 287
1982221N10250 1982 59 EP MM LANE 1982-08-14 03:00:00 TS 17.4858 -136.382 main 1952 1906 P_________P___ EP121982 17.4922 -136.372 TD 25 -1 17.4666 -136.411 1 25 10 294
1982221N10250 1982 59 EP MM LANE 1982-08-14 06:00:00 TS 17.6852 -136.815 25 hurdat_epa main 1906 1863 O_________P___ hurdat_epa EP121982 17.7000 -136.800 TD 25 -1 17.6409 -136.861 1 25 9 293
1982221N10250 1982 59 EP MM LANE 1982-08-14 09:00:00 TS 17.8481 -137.274 main 1852 1807 P_________P___ EP121982 17.8575 -137.273 TD 25 -1 17.8199 -137.280 1 25 9 291
1982221N10250 1982 59 EP MM LANE 1982-08-14 12:00:00 TS 18.0000 -137.700 25 hurdat_epa main 1807 1774 O_________O___ hurdat_epa EP121982 18.0000 -137.700 TD 25 -1 18.0000 -137.700 1 25 8 293
1982221N10250 1982 59 EP MM LANE 1982-08-14 15:00:00 TS 18.1511 -138.014 main 1773 1729 P_________P___ EP121982 18.1420 -137.970 TD 25 -1 18.1782 -138.146 1 25 7 296
1982221N10250 1982 59 EP MM LANE 1982-08-14 18:00:00 TS 18.3135 -138.379 25 hurdat_epa main 1729 1674 O_________P___ hurdat_epa EP121982 18.3000 -138.300 TD 25 -1 18.3541 -138.617 1 25 9 292
1982221N10250 1982 59 EP MM LANE 1982-08-14 21:00:00 TS 18.5002 -138.930 main 1674 1599 P_________P___ EP121982 18.4909 -138.872 TD 25 -1 18.5279 -139.104 1 25 12 288
1982221N10250 1982 59 EP MM LANE 1982-08-15 00:00:00 TS 18.7000 -139.600 25 hurdat_epa main 1599 O_________O___ hurdat_epa EP121982 18.7000 -139.600 TD 25 -1 18.7000 -139.600 1 25 13 287

About IBTrACS Database

This database is a web-friendly format of International Best Track Archive for Climate Stewardship (IBTrACS), a global best track data archive curated by NOAA dating back to 1842.

Updated: 2021-12-01